Huvudsida
METAR-TAF:

METAR-TAF

Flygplatser :

Helsingfors, Finland

Helsingfors-Vanda flygplats

latitud: 60-19N, longitud: 024-58E, höjd: 51 m

Aktuellt väderrapport

Denna rapport gjordes för 38 minuter sedan, klockan 02:50 UTC
Vind 4 kt från nordost
Temperatur -6°C
Fuktighet 86%
Tryck 1000 hPa
Sikt 10 km eller mer
Få moln på en höjd av 1500 ft
Brutna moln på en höjd av 2600 ft

METAR: EFHK 190250Z 04004KT 9999 FEW015 BKN026 M06/M08 Q1000 NOSIG

Tid: 05:28 (03:28 UTC)

Väderprognos

Denna rapport gjordes för 58 minuter sedan, klockan 02:30 UTC
Prognos gäller från 19 kl. 03 UTC till 20 kl. 03 UTC
Vind 4 kt från nordost
Sikt 10 km eller mer
Spridda moln på en höjd av 1200 ft
Brutna moln på en höjd av 2000 ft
Temporärt
från 19 kl. 03 UTC till 19 kl. 12 UTC
Sikt: 3000 m
Brutna moln på en höjd av 900 ft
lätt snö
Temporärt
från 19 kl. 12 UTC till 19 kl. 24 UTC
Brutna moln på en höjd av 700 ft

TAF: EFHK 190230Z 1903/2003 04004KT 9999 SCT012 BKN020 TEMPO 1903/1912 3000 -SN BKN009 TEMPO 1912/1924 BKN007

Aktuella väderrapporter och prognoser från 4000 flygplatser (METAR- och TAF-rapporter).

De tillgängliga stationerna syns som gula och röda prickar på kartan.

För musen över prickarna för att se namnen på stationerna.

Klicka sedan för att få väderrapporter och prognoser.

För att ändra kartan: Klicka på de gröna knapparna med ett svart kors på för att zooma in; den gröna knappen med ett streck på för att zooma ut; eller på de gröna pilarna för angränsande kartor.


METAR-TAF: